sensor_id;sensor_type;location;lat;lon;timestamp;temperature;humidity
25512;DHT22;13414;44.534;18.700;2023-12-29T00:00:38;1.60;99.90
25512;DHT22;13414;44.534;18.700;2023-12-29T00:03:07;1.60;99.90
25512;DHT22;13414;44.534;18.700;2023-12-29T00:05:34;1.60;99.90
25512;DHT22;13414;44.534;18.700;2023-12-29T00:08:02;1.50;99.90
25512;DHT22;13414;44.534;18.700;2023-12-29T00:10:29;1.50;99.90
25512;DHT22;13414;44.534;18.700;2023-12-29T00:12:57;1.60;99.90
25512;DHT22;13414;44.534;18.700;2023-12-29T00:15:24;1.60;99.90
25512;DHT22;13414;44.534;18.700;2023-12-29T00:17:53;1.60;99.90
25512;DHT22;13414;44.534;18.700;2023-12-29T00:20:20;1.40;99.90
25512;DHT22;13414;44.534;18.700;2023-12-29T00:22:47;1.30;99.90
25512;DHT22;13414;44.534;18.700;2023-12-29T00:25:14;1.30;99.90
25512;DHT22;13414;44.534;18.700;2023-12-29T00:27:42;1.30;99.90
25512;DHT22;13414;44.534;18.700;2023-12-29T00:30:11;1.30;99.90
25512;DHT22;13414;44.534;18.700;2023-12-29T00:32:39;1.40;99.90
25512;DHT22;13414;44.534;18.700;2023-12-29T00:35:08;1.40;99.90
25512;DHT22;13414;44.534;18.700;2023-12-29T00:37:36;1.50;99.90
25512;DHT22;13414;44.534;18.700;2023-12-29T00:40:04;1.50;99.90
25512;DHT22;13414;44.534;18.700;2023-12-29T00:42:33;1.40;99.90
25512;DHT22;13414;44.534;18.700;2023-12-29T00:45:00;1.40;99.90
25512;DHT22;13414;44.534;18.700;2023-12-29T00:47:28;1.40;99.90
25512;DHT22;13414;44.534;18.700;2023-12-29T00:49:55;1.50;99.90
25512;DHT22;13414;44.534;18.700;2023-12-29T00:52:24;1.50;99.90
25512;DHT22;13414;44.534;18.700;2023-12-29T00:54:53;1.50;99.90
25512;DHT22;13414;44.534;18.700;2023-12-29T00:57:20;1.40;99.90
25512;DHT22;13414;44.534;18.700;2023-12-29T00:59:47;1.30;99.90
25512;DHT22;13414;44.534;18.700;2023-12-29T01:02:16;1.30;99.90
25512;DHT22;13414;44.534;18.700;2023-12-29T01:04:43;1.30;99.90
25512;DHT22;13414;44.534;18.700;2023-12-29T01:07:10;1.50;99.90
25512;DHT22;13414;44.534;18.700;2023-12-29T01:09:40;1.50;99.90
25512;DHT22;13414;44.534;18.700;2023-12-29T01:12:07;1.50;99.90
25512;DHT22;13414;44.534;18.700;2023-12-29T01:14:35;1.50;99.90
25512;DHT22;13414;44.534;18.700;2023-12-29T01:17:03;1.50;99.90
25512;DHT22;13414;44.534;18.700;2023-12-29T01:19:30;1.40;99.90
25512;DHT22;13414;44.534;18.700;2023-12-29T01:21:58;1.50;99.90
25512;DHT22;13414;44.534;18.700;2023-12-29T01:24:25;1.40;99.90
25512;DHT22;13414;44.534;18.700;2023-12-29T01:26:54;1.40;99.90
25512;DHT22;13414;44.534;18.700;2023-12-29T01:29:22;1.40;99.90
25512;DHT22;13414;44.534;18.700;2023-12-29T01:31:51;1.50;99.90
25512;DHT22;13414;44.534;18.700;2023-12-29T01:34:18;1.50;99.90
25512;DHT22;13414;44.534;18.700;2023-12-29T01:36:45;1.40;99.90
25512;DHT22;13414;44.534;18.700;2023-12-29T01:39:13;1.20;99.90
25512;DHT22;13414;44.534;18.700;2023-12-29T01:41:40;1.10;99.90
25512;DHT22;13414;44.534;18.700;2023-12-29T01:44:22;1.10;99.90
25512;DHT22;13414;44.534;18.700;2023-12-29T01:46:51;1.10;99.90
25512;DHT22;13414;44.534;18.700;2023-12-29T01:49:20;1.20;99.90
25512;DHT22;13414;44.534;18.700;2023-12-29T01:51:49;1.10;99.90
25512;DHT22;13414;44.534;18.700;2023-12-29T01:54:19;1.10;99.90
25512;DHT22;13414;44.534;18.700;2023-12-29T01:56:50;1.10;99.90
25512;DHT22;13414;44.534;18.700;2023-12-29T01:59:21;1.10;99.90
25512;DHT22;13414;44.534;18.700;2023-12-29T02:01:49;1.10;99.90
25512;DHT22;13414;44.534;18.700;2023-12-29T02:04:17;1.20;99.90
25512;DHT22;13414;44.534;18.700;2023-12-29T02:06:45;1.20;99.90
25512;DHT22;13414;44.534;18.700;2023-12-29T02:09:13;1.20;99.90
25512;DHT22;13414;44.534;18.700;2023-12-29T02:11:42;1.10;99.90
25512;DHT22;13414;44.534;18.700;2023-12-29T02:14:10;1.10;99.90
25512;DHT22;13414;44.534;18.700;2023-12-29T02:16:44;1.00;99.90
25512;DHT22;13414;44.534;18.700;2023-12-29T02:19:39;1.00;99.90
25512;DHT22;13414;44.534;18.700;2023-12-29T02:22:09;1.00;99.90
25512;DHT22;13414;44.534;18.700;2023-12-29T02:24:38;1.10;99.90
25512;DHT22;13414;44.534;18.700;2023-12-29T02:27:25;1.10;99.90
25512;DHT22;13414;44.534;18.700;2023-12-29T02:30:08;1.10;99.90
25512;DHT22;13414;44.534;18.700;2023-12-29T02:32:38;1.00;99.90
25512;DHT22;13414;44.534;18.700;2023-12-29T02:35:07;1.10;99.90
25512;DHT22;13414;44.534;18.700;2023-12-29T02:37:37;1.10;99.90
25512;DHT22;13414;44.534;18.700;2023-12-29T02:40:07;1.00;99.90
25512;DHT22;13414;44.534;18.700;2023-12-29T02:42:36;1.10;99.90
25512;DHT22;13414;44.534;18.700;2023-12-29T02:45:04;1.10;99.90
25512;DHT22;13414;44.534;18.700;2023-12-29T02:47:32;1.10;99.90
25512;DHT22;13414;44.534;18.700;2023-12-29T02:50:00;1.20;99.90
25512;DHT22;13414;44.534;18.700;2023-12-29T02:52:29;1.20;99.90
25512;DHT22;13414;44.534;18.700;2023-12-29T02:54:56;1.20;99.90
25512;DHT22;13414;44.534;18.700;2023-12-29T02:57:24;1.30;99.90
25512;DHT22;13414;44.534;18.700;2023-12-29T02:59:52;1.30;99.90
25512;DHT22;13414;44.534;18.700;2023-12-29T03:02:20;1.20;99.90
25512;DHT22;13414;44.534;18.700;2023-12-29T03:04:47;1.20;99.90
25512;DHT22;13414;44.534;18.700;2023-12-29T03:07:16;1.30;99.90
25512;DHT22;13414;44.534;18.700;2023-12-29T03:09:43;1.20;99.90
25512;DHT22;13414;44.534;18.700;2023-12-29T03:12:11;1.20;99.90
25512;DHT22;13414;44.534;18.700;2023-12-29T03:14:39;1.10;99.90
25512;DHT22;13414;44.534;18.700;2023-12-29T03:17:08;1.10;99.90
25512;DHT22;13414;44.534;18.700;2023-12-29T03:19:35;1.00;99.90
25512;DHT22;13414;44.534;18.700;2023-12-29T03:22:03;1.10;99.90
25512;DHT22;13414;44.534;18.700;2023-12-29T03:24:30;1.10;99.90
25512;DHT22;13414;44.534;18.700;2023-12-29T03:26:58;1.10;99.90
25512;DHT22;13414;44.534;18.700;2023-12-29T03:29:26;1.00;99.90
25512;DHT22;13414;44.534;18.700;2023-12-29T03:31:53;1.00;99.90
25512;DHT22;13414;44.534;18.700;2023-12-29T03:34:22;1.10;99.90
25512;DHT22;13414;44.534;18.700;2023-12-29T03:36:49;1.10;99.90
25512;DHT22;13414;44.534;18.700;2023-12-29T03:39:18;1.00;99.90
25512;DHT22;13414;44.534;18.700;2023-12-29T03:41:45;1.00;99.90
25512;DHT22;13414;44.534;18.700;2023-12-29T03:44:13;1.10;99.90
25512;DHT22;13414;44.534;18.700;2023-12-29T03:46:41;1.00;99.90
25512;DHT22;13414;44.534;18.700;2023-12-29T03:49:09;1.00;99.90
25512;DHT22;13414;44.534;18.700;2023-12-29T03:51:38;1.00;99.90
25512;DHT22;13414;44.534;18.700;2023-12-29T03:54:05;1.10;99.90
25512;DHT22;13414;44.534;18.700;2023-12-29T03:56:32;1.10;99.90
25512;DHT22;13414;44.534;18.700;2023-12-29T03:59:01;1.10;99.90
25512;DHT22;13414;44.534;18.700;2023-12-29T04:01:29;1.00;99.90
25512;DHT22;13414;44.534;18.700;2023-12-29T04:03:56;0.90;99.90
25512;DHT22;13414;44.534;18.700;2023-12-29T04:06:24;1.00;99.90
25512;DHT22;13414;44.534;18.700;2023-12-29T04:08:52;1.00;99.90
25512;DHT22;13414;44.534;18.700;2023-12-29T04:11:20;0.90;99.90
25512;DHT22;13414;44.534;18.700;2023-12-29T04:13:50;0.90;99.90
25512;DHT22;13414;44.534;18.700;2023-12-29T04:16:17;0.90;99.90
25512;DHT22;13414;44.534;18.700;2023-12-29T04:18:45;1.00;99.90
25512;DHT22;13414;44.534;18.700;2023-12-29T04:21:14;1.10;99.90
25512;DHT22;13414;44.534;18.700;2023-12-29T04:23:42;1.20;99.90
25512;DHT22;13414;44.534;18.700;2023-12-29T04:26:10;1.20;99.90
25512;DHT22;13414;44.534;18.700;2023-12-29T04:28:38;1.30;99.90
25512;DHT22;13414;44.534;18.700;2023-12-29T04:31:06;1.40;99.90
25512;DHT22;13414;44.534;18.700;2023-12-29T04:33:33;1.50;99.90
25512;DHT22;13414;44.534;18.700;2023-12-29T04:36:01;1.50;99.90
25512;DHT22;13414;44.534;18.700;2023-12-29T04:38:31;1.50;99.90
25512;DHT22;13414;44.534;18.700;2023-12-29T04:40:59;1.50;99.90
25512;DHT22;13414;44.534;18.700;2023-12-29T04:43:30;1.40;99.90
25512;DHT22;13414;44.534;18.700;2023-12-29T04:45:58;1.50;99.90
25512;DHT22;13414;44.534;18.700;2023-12-29T04:48:26;1.50;99.90
25512;DHT22;13414;44.534;18.700;2023-12-29T04:50:55;1.40;99.90
25512;DHT22;13414;44.534;18.700;2023-12-29T04:53:22;1.30;99.90
25512;DHT22;13414;44.534;18.700;2023-12-29T04:55:50;1.20;99.90
25512;DHT22;13414;44.534;18.700;2023-12-29T04:58:17;1.30;99.90
25512;DHT22;13414;44.534;18.700;2023-12-29T05:00:46;1.30;99.90
25512;DHT22;13414;44.534;18.700;2023-12-29T05:03:14;1.40;99.90
25512;DHT22;13414;44.534;18.700;2023-12-29T05:05:41;1.30;99.90
25512;DHT22;13414;44.534;18.700;2023-12-29T05:08:08;1.30;99.90
25512;DHT22;13414;44.534;18.700;2023-12-29T05:10:36;1.30;99.90
25512;DHT22;13414;44.534;18.700;2023-12-29T05:13:04;1.30;99.90
25512;DHT22;13414;44.534;18.700;2023-12-29T05:15:33;1.40;99.90
25512;DHT22;13414;44.534;18.700;2023-12-29T05:18:02;1.40;99.90
25512;DHT22;13414;44.534;18.700;2023-12-29T05:20:29;1.40;99.90
25512;DHT22;13414;44.534;18.700;2023-12-29T05:22:56;1.40;99.90
25512;DHT22;13414;44.534;18.700;2023-12-29T05:25:24;1.40;99.90
25512;DHT22;13414;44.534;18.700;2023-12-29T05:27:52;1.50;99.90
25512;DHT22;13414;44.534;18.700;2023-12-29T05:30:19;1.50;99.90
25512;DHT22;13414;44.534;18.700;2023-12-29T05:32:46;1.40;99.90
25512;DHT22;13414;44.534;18.700;2023-12-29T05:35:21;1.30;99.90
25512;DHT22;13414;44.534;18.700;2023-12-29T05:37:48;1.30;99.90
25512;DHT22;13414;44.534;18.700;2023-12-29T05:40:16;1.30;99.90
25512;DHT22;13414;44.534;18.700;2023-12-29T05:42:44;1.30;99.90
25512;DHT22;13414;44.534;18.700;2023-12-29T05:45:11;1.00;99.90
25512;DHT22;13414;44.534;18.700;2023-12-29T05:47:39;1.10;99.90
25512;DHT22;13414;44.534;18.700;2023-12-29T05:50:07;1.10;99.90
25512;DHT22;13414;44.534;18.700;2023-12-29T05:52:36;1.10;99.90
25512;DHT22;13414;44.534;18.700;2023-12-29T05:55:03;1.20;99.90
25512;DHT22;13414;44.534;18.700;2023-12-29T05:57:31;1.30;99.90
25512;DHT22;13414;44.534;18.700;2023-12-29T06:00:00;1.40;99.90
25512;DHT22;13414;44.534;18.700;2023-12-29T06:02:37;1.40;99.90
25512;DHT22;13414;44.534;18.700;2023-12-29T06:05:05;1.50;99.90
25512;DHT22;13414;44.534;18.700;2023-12-29T06:07:33;1.50;99.90
25512;DHT22;13414;44.534;18.700;2023-12-29T06:10:03;1.50;99.90
25512;DHT22;13414;44.534;18.700;2023-12-29T06:12:30;1.50;99.90
25512;DHT22;13414;44.534;18.700;2023-12-29T06:14:58;1.50;99.90
25512;DHT22;13414;44.534;18.700;2023-12-29T06:17:25;1.50;99.90
25512;DHT22;13414;44.534;18.700;2023-12-29T06:19:53;1.40;99.90
25512;DHT22;13414;44.534;18.700;2023-12-29T06:22:20;1.40;99.90
25512;DHT22;13414;44.534;18.700;2023-12-29T06:24:48;1.40;99.90
25512;DHT22;13414;44.534;18.700;2023-12-29T06:27:17;1.40;99.90
25512;DHT22;13414;44.534;18.700;2023-12-29T06:29:44;1.50;99.90
25512;DHT22;13414;44.534;18.700;2023-12-29T06:32:12;1.50;99.90
25512;DHT22;13414;44.534;18.700;2023-12-29T06:34:40;1.50;99.90
25512;DHT22;13414;44.534;18.700;2023-12-29T06:37:08;1.50;99.90
25512;DHT22;13414;44.534;18.700;2023-12-29T06:39:35;1.60;99.90
25512;DHT22;13414;44.534;18.700;2023-12-29T06:42:04;1.60;99.90
25512;DHT22;13414;44.534;18.700;2023-12-29T06:44:33;1.70;99.90
25512;DHT22;13414;44.534;18.700;2023-12-29T06:47:00;1.70;99.90
25512;DHT22;13414;44.534;18.700;2023-12-29T06:49:27;1.70;99.90
25512;DHT22;13414;44.534;18.700;2023-12-29T06:51:54;1.70;99.90
25512;DHT22;13414;44.534;18.700;2023-12-29T06:54:22;1.70;99.90
25512;DHT22;13414;44.534;18.700;2023-12-29T06:56:49;1.70;99.90
25512;DHT22;13414;44.534;18.700;2023-12-29T06:59:17;1.70;99.90
25512;DHT22;13414;44.534;18.700;2023-12-29T07:01:47;1.80;99.90
25512;DHT22;13414;44.534;18.700;2023-12-29T07:04:14;1.80;99.90
25512;DHT22;13414;44.534;18.700;2023-12-29T07:06:42;1.80;99.90
25512;DHT22;13414;44.534;18.700;2023-12-29T07:09:10;1.90;99.90
25512;DHT22;13414;44.534;18.700;2023-12-29T07:11:37;1.90;99.90
25512;DHT22;13414;44.534;18.700;2023-12-29T07:14:05;1.90;99.90
25512;DHT22;13414;44.534;18.700;2023-12-29T07:16:32;1.90;99.90
25512;DHT22;13414;44.534;18.700;2023-12-29T07:19:01;2.00;99.90
25512;DHT22;13414;44.534;18.700;2023-12-29T07:21:29;2.00;99.90
25512;DHT22;13414;44.534;18.700;2023-12-29T07:23:56;2.00;99.90
25512;DHT22;13414;44.534;18.700;2023-12-29T07:26:24;2.00;99.90
25512;DHT22;13414;44.534;18.700;2023-12-29T07:28:51;2.00;99.90
25512;DHT22;13414;44.534;18.700;2023-12-29T07:31:20;2.10;99.90
25512;DHT22;13414;44.534;18.700;2023-12-29T07:33:48;2.10;99.90
25512;DHT22;13414;44.534;18.700;2023-12-29T07:36:17;2.20;99.90
25512;DHT22;13414;44.534;18.700;2023-12-29T07:38:44;2.20;99.90
25512;DHT22;13414;44.534;18.700;2023-12-29T07:41:12;2.30;99.90
25512;DHT22;13414;44.534;18.700;2023-12-29T07:43:40;2.30;99.90
25512;DHT22;13414;44.534;18.700;2023-12-29T07:46:08;2.20;99.90
25512;DHT22;13414;44.534;18.700;2023-12-29T07:48:35;2.30;99.90
25512;DHT22;13414;44.534;18.700;2023-12-29T07:51:05;2.40;99.90
25512;DHT22;13414;44.534;18.700;2023-12-29T07:53:34;2.40;99.90
25512;DHT22;13414;44.534;18.700;2023-12-29T07:56:01;2.50;99.90
25512;DHT22;13414;44.534;18.700;2023-12-29T07:58:29;2.50;99.90
25512;DHT22;13414;44.534;18.700;2023-12-29T08:00:57;2.50;99.90
25512;DHT22;13414;44.534;18.700;2023-12-29T08:03:24;2.50;99.90
25512;DHT22;13414;44.534;18.700;2023-12-29T08:05:52;2.80;99.90
25512;DHT22;13414;44.534;18.700;2023-12-29T08:08:20;3.10;99.90
25512;DHT22;13414;44.534;18.700;2023-12-29T08:10:49;3.30;99.90
25512;DHT22;13414;44.534;18.700;2023-12-29T08:13:16;3.40;99.90
25512;DHT22;13414;44.534;18.700;2023-12-29T08:15:44;3.60;61.00
25512;DHT22;13414;44.534;18.700;2023-12-29T08:18:11;3.70;13.50
25512;DHT22;13414;44.534;18.700;2023-12-29T08:20:39;3.80;1.00
25512;DHT22;13414;44.534;18.700;2023-12-29T08:23:07;4.00;1.00
25512;DHT22;13414;44.534;18.700;2023-12-29T08:25:34;4.10;1.00
25512;DHT22;13414;44.534;18.700;2023-12-29T08:28:04;4.20;99.90
25512;DHT22;13414;44.534;18.700;2023-12-29T08:30:34;4.10;99.90
25512;DHT22;13414;44.534;18.700;2023-12-29T08:33:03;4.20;99.90
25512;DHT22;13414;44.534;18.700;2023-12-29T08:35:30;4.30;99.90
25512;DHT22;13414;44.534;18.700;2023-12-29T08:37:58;4.30;99.90
25512;DHT22;13414;44.534;18.700;2023-12-29T08:40:25;4.30;1.00
25512;DHT22;13414;44.534;18.700;2023-12-29T08:42:53;4.50;1.00
25512;DHT22;13414;44.534;18.700;2023-12-29T08:45:22;4.70;1.00
25512;DHT22;13414;44.534;18.700;2023-12-29T08:47:50;4.90;99.90
25512;DHT22;13414;44.534;18.700;2023-12-29T08:50:17;5.00;1.00
25512;DHT22;13414;44.534;18.700;2023-12-29T08:52:45;5.10;1.00
25512;DHT22;13414;44.534;18.700;2023-12-29T08:55:12;5.30;1.00
25512;DHT22;13414;44.534;18.700;2023-12-29T08:57:40;5.40;1.00
25512;DHT22;13414;44.534;18.700;2023-12-29T09:00:08;5.50;1.00
25512;DHT22;13414;44.534;18.700;2023-12-29T09:02:38;5.70;1.00
25512;DHT22;13414;44.534;18.700;2023-12-29T09:05:06;5.80;1.00
25512;DHT22;13414;44.534;18.700;2023-12-29T09:07:34;6.00;1.00
25512;DHT22;13414;44.534;18.700;2023-12-29T09:10:01;6.20;1.00
25512;DHT22;13414;44.534;18.700;2023-12-29T09:12:29;6.40;1.00
25512;DHT22;13414;44.534;18.700;2023-12-29T09:14:56;6.50;99.90
25512;DHT22;13414;44.534;18.700;2023-12-29T09:17:24;6.80;99.90
25512;DHT22;13414;44.534;18.700;2023-12-29T09:19:53;6.90;1.00
25512;DHT22;13414;44.534;18.700;2023-12-29T09:22:20;7.00;1.00
25512;DHT22;13414;44.534;18.700;2023-12-29T09:24:48;7.20;99.90
25512;DHT22;13414;44.534;18.700;2023-12-29T09:27:15;7.40;7.00
25512;DHT22;13414;44.534;18.700;2023-12-29T09:29:43;7.60;99.90
25512;DHT22;13414;44.534;18.700;2023-12-29T09:32:10;7.70;1.00
25512;DHT22;13414;44.534;18.700;2023-12-29T09:34:38;8.00;99.90
25512;DHT22;13414;44.534;18.700;2023-12-29T09:37:07;8.20;1.00
25512;DHT22;13414;44.534;18.700;2023-12-29T09:39:34;8.40;99.90
25512;DHT22;13414;44.534;18.700;2023-12-29T09:42:03;8.50;99.90
25512;DHT22;13414;44.534;18.700;2023-12-29T09:44:31;8.70;99.90
25512;DHT22;13414;44.534;18.700;2023-12-29T09:47:02;8.80;99.90
25512;DHT22;13414;44.534;18.700;2023-12-29T09:49:36;8.90;1.00
25512;DHT22;13414;44.534;18.700;2023-12-29T09:52:07;9.00;1.00
25512;DHT22;13414;44.534;18.700;2023-12-29T09:54:37;9.00;99.90
25512;DHT22;13414;44.534;18.700;2023-12-29T09:57:05;9.00;99.90
25512;DHT22;13414;44.534;18.700;2023-12-29T09:59:34;9.00;1.00
25512;DHT22;13414;44.534;18.700;2023-12-29T10:02:04;9.00;99.90
25512;DHT22;13414;44.534;18.700;2023-12-29T10:04:32;9.00;1.00
25512;DHT22;13414;44.534;18.700;2023-12-29T10:07:03;9.20;99.90
25512;DHT22;13414;44.534;18.700;2023-12-29T10:09:37;9.40;1.00
25512;DHT22;13414;44.534;18.700;2023-12-29T10:12:09;9.60;1.00
25512;DHT22;13414;44.534;18.700;2023-12-29T10:14:41;9.80;99.90
25512;DHT22;13414;44.534;18.700;2023-12-29T10:17:19;10.00;99.90
25512;DHT22;13414;44.534;18.700;2023-12-29T10:20:02;10.20;1.00
25512;DHT22;13414;44.534;18.700;2023-12-29T10:22:39;10.00;1.00
25512;DHT22;13414;44.534;18.700;2023-12-29T10:25:12;10.20;1.00
25512;DHT22;13414;44.534;18.700;2023-12-29T10:27:40;10.40;1.00
25512;DHT22;13414;44.534;18.700;2023-12-29T10:30:11;10.60;99.90
25512;DHT22;13414;44.534;18.700;2023-12-29T10:32:39;10.80;26.80
25512;DHT22;13414;44.534;18.700;2023-12-29T10:35:10;11.00;1.00
25512;DHT22;13414;44.534;18.700;2023-12-29T10:37:38;11.10;1.00
25512;DHT22;13414;44.534;18.700;2023-12-29T10:42:54;11.10;99.90
25512;DHT22;13414;44.534;18.700;2023-12-29T10:45:26;11.20;99.90
25512;DHT22;13414;44.534;18.700;2023-12-29T10:47:53;11.30;99.90
25512;DHT22;13414;44.534;18.700;2023-12-29T10:50:24;11.50;58.10
25512;DHT22;13414;44.534;18.700;2023-12-29T10:53:14;11.60;94.80
25512;DHT22;13414;44.534;18.700;2023-12-29T10:55:43;11.80;1.00
25512;DHT22;13414;44.534;18.700;2023-12-29T10:58:18;11.90;1.00
25512;DHT22;13414;44.534;18.700;2023-12-29T11:00:49;12.00;1.00
25512;DHT22;13414;44.534;18.700;2023-12-29T11:03:19;12.10;1.00
25512;DHT22;13414;44.534;18.700;2023-12-29T11:06:01;12.10;1.00
25512;DHT22;13414;44.534;18.700;2023-12-29T11:08:30;12.20;1.00
25512;DHT22;13414;44.534;18.700;2023-12-29T11:11:06;12.20;1.00
25512;DHT22;13414;44.534;18.700;2023-12-29T11:13:45;12.30;1.00
25512;DHT22;13414;44.534;18.700;2023-12-29T11:16:17;12.40;1.00
25512;DHT22;13414;44.534;18.700;2023-12-29T11:18:52;12.40;1.00
25512;DHT22;13414;44.534;18.700;2023-12-29T11:21:25;12.50;99.90
25512;DHT22;13414;44.534;18.700;2023-12-29T11:24:07;12.50;99.90
25512;DHT22;13414;44.534;18.700;2023-12-29T11:26:37;12.50;99.90
25512;DHT22;13414;44.534;18.700;2023-12-29T11:29:11;12.60;99.90
25512;DHT22;13414;44.534;18.700;2023-12-29T11:31:42;12.50;99.90
25512;DHT22;13414;44.534;18.700;2023-12-29T11:34:18;12.50;99.90
25512;DHT22;13414;44.534;18.700;2023-12-29T11:38:19;12.60;99.90
25512;DHT22;13414;44.534;18.700;2023-12-29T11:41:35;12.60;99.90
25512;DHT22;13414;44.534;18.700;2023-12-29T11:44:08;12.30;99.90
25512;DHT22;13414;44.534;18.700;2023-12-29T11:46:40;12.10;99.90
25512;DHT22;13414;44.534;18.700;2023-12-29T11:49:58;12.00;99.90
25512;DHT22;13414;44.534;18.700;2023-12-29T11:52:33;11.90;99.90
25512;DHT22;13414;44.534;18.700;2023-12-29T11:55:09;12.00;99.90
25512;DHT22;13414;44.534;18.700;2023-12-29T11:57:37;12.00;99.90
25512;DHT22;13414;44.534;18.700;2023-12-29T12:00:07;11.90;99.90
25512;DHT22;13414;44.534;18.700;2023-12-29T12:02:38;11.80;99.90
25512;DHT22;13414;44.534;18.700;2023-12-29T12:05:09;11.90;99.90
25512;DHT22;13414;44.534;18.700;2023-12-29T12:08:07;11.80;99.90
25512;DHT22;13414;44.534;18.700;2023-12-29T12:10:34;11.60;99.90
25512;DHT22;13414;44.534;18.700;2023-12-29T12:13:05;11.60;1.00
25512;DHT22;13414;44.534;18.700;2023-12-29T12:15:34;11.60;1.00
25512;DHT22;13414;44.534;18.700;2023-12-29T12:18:06;11.70;1.00
25512;DHT22;13414;44.534;18.700;2023-12-29T12:20:38;11.70;1.00
25512;DHT22;13414;44.534;18.700;2023-12-29T12:23:11;11.70;1.00
25512;DHT22;13414;44.534;18.700;2023-12-29T12:25:40;11.60;1.00
25512;DHT22;13414;44.534;18.700;2023-12-29T12:28:09;11.50;1.00
25512;DHT22;13414;44.534;18.700;2023-12-29T12:30:39;11.60;1.00
25512;DHT22;13414;44.534;18.700;2023-12-29T12:33:06;11.60;1.00
25512;DHT22;13414;44.534;18.700;2023-12-29T12:35:38;11.60;1.00
25512;DHT22;13414;44.534;18.700;2023-12-29T12:38:11;11.70;1.00
25512;DHT22;13414;44.534;18.700;2023-12-29T12:40:43;11.80;1.00
25512;DHT22;13414;44.534;18.700;2023-12-29T12:43:14;11.80;1.00
25512;DHT22;13414;44.534;18.700;2023-12-29T12:45:53;11.70;1.00
25512;DHT22;13414;44.534;18.700;2023-12-29T12:48:23;11.70;1.00
25512;DHT22;13414;44.534;18.700;2023-12-29T12:50:51;11.70;1.00
25512;DHT22;13414;44.534;18.700;2023-12-29T12:53:20;11.70;1.00
25512;DHT22;13414;44.534;18.700;2023-12-29T12:55:50;11.70;1.00
25512;DHT22;13414;44.534;18.700;2023-12-29T12:58:18;11.70;1.00
25512;DHT22;13414;44.534;18.700;2023-12-29T13:00:48;11.70;1.00
25512;DHT22;13414;44.534;18.700;2023-12-29T13:03:16;11.60;1.00
25512;DHT22;13414;44.534;18.700;2023-12-29T13:05:50;11.70;1.00
25512;DHT22;13414;44.534;18.700;2023-12-29T13:08:18;11.70;1.00
25512;DHT22;13414;44.534;18.700;2023-12-29T13:11:07;11.60;1.00
25512;DHT22;13414;44.534;18.700;2023-12-29T13:13:40;11.60;1.00
25512;DHT22;13414;44.534;18.700;2023-12-29T13:16:10;11.60;1.00
25512;DHT22;13414;44.534;18.700;2023-12-29T13:18:39;11.60;1.00
25512;DHT22;13414;44.534;18.700;2023-12-29T13:21:08;11.60;1.00
25512;DHT22;13414;44.534;18.700;2023-12-29T13:23:36;11.50;1.00
25512;DHT22;13414;44.534;18.700;2023-12-29T13:26:07;11.50;92.20
25512;DHT22;13414;44.534;18.700;2023-12-29T13:28:35;11.60;99.90
25512;DHT22;13414;44.534;18.700;2023-12-29T13:31:04;11.70;93.70
25512;DHT22;13414;44.534;18.700;2023-12-29T13:33:44;11.60;28.90
25512;DHT22;13414;44.534;18.700;2023-12-29T13:36:19;11.70;95.90
25512;DHT22;13414;44.534;18.700;2023-12-29T13:38:53;11.70;96.90
25512;DHT22;13414;44.534;18.700;2023-12-29T13:41:22;11.70;15.30
25512;DHT22;13414;44.534;18.700;2023-12-29T13:43:52;11.60;49.60
25512;DHT22;13414;44.534;18.700;2023-12-29T13:46:20;11.60;99.90
25512;DHT22;13414;44.534;18.700;2023-12-29T13:48:49;11.50;99.90
25512;DHT22;13414;44.534;18.700;2023-12-29T13:51:23;11.50;99.90
25512;DHT22;13414;44.534;18.700;2023-12-29T13:53:58;11.40;1.00
25512;DHT22;13414;44.534;18.700;2023-12-29T13:56:25;11.40;1.00
25512;DHT22;13414;44.534;18.700;2023-12-29T13:58:53;11.40;1.00
25512;DHT22;13414;44.534;18.700;2023-12-29T14:01:22;11.40;1.00
25512;DHT22;13414;44.534;18.700;2023-12-29T14:04:00;11.40;1.00
25512;DHT22;13414;44.534;18.700;2023-12-29T14:06:39;11.40;1.00
25512;DHT22;13414;44.534;18.700;2023-12-29T14:09:13;11.40;1.00
25512;DHT22;13414;44.534;18.700;2023-12-29T14:11:45;11.40;1.00
25512;DHT22;13414;44.534;18.700;2023-12-29T14:14:12;11.40;1.00
25512;DHT22;13414;44.534;18.700;2023-12-29T14:16:40;11.30;1.00
25512;DHT22;13414;44.534;18.700;2023-12-29T14:19:10;11.30;1.00
25512;DHT22;13414;44.534;18.700;2023-12-29T14:21:40;11.20;1.00
25512;DHT22;13414;44.534;18.700;2023-12-29T14:24:10;11.20;1.00
25512;DHT22;13414;44.534;18.700;2023-12-29T14:26:37;11.20;16.80
25512;DHT22;13414;44.534;18.700;2023-12-29T14:29:07;11.10;1.00
25512;DHT22;13414;44.534;18.700;2023-12-29T14:31:36;11.00;99.90
25512;DHT22;13414;44.534;18.700;2023-12-29T14:34:09;11.00;99.90
25512;DHT22;13414;44.534;18.700;2023-12-29T14:36:38;10.90;99.90
25512;DHT22;13414;44.534;18.700;2023-12-29T14:39:07;10.90;99.90
25512;DHT22;13414;44.534;18.700;2023-12-29T14:41:36;10.80;1.00
25512;DHT22;13414;44.534;18.700;2023-12-29T14:44:04;10.80;1.00
25512;DHT22;13414;44.534;18.700;2023-12-29T14:46:36;10.80;1.00
25512;DHT22;13414;44.534;18.700;2023-12-29T14:49:04;10.70;1.00
25512;DHT22;13414;44.534;18.700;2023-12-29T14:51:33;10.70;1.00
25512;DHT22;13414;44.534;18.700;2023-12-29T14:54:01;10.70;1.00
25512;DHT22;13414;44.534;18.700;2023-12-29T14:56:30;10.60;1.00
25512;DHT22;13414;44.534;18.700;2023-12-29T14:58:57;10.50;1.00
25512;DHT22;13414;44.534;18.700;2023-12-29T15:01:25;10.50;1.00
25512;DHT22;13414;44.534;18.700;2023-12-29T15:03:53;10.50;99.90
25512;DHT22;13414;44.534;18.700;2023-12-29T15:06:20;10.60;99.90
25512;DHT22;13414;44.534;18.700;2023-12-29T15:08:49;10.50;99.90
25512;DHT22;13414;44.534;18.700;2023-12-29T15:11:17;10.50;99.90
25512;DHT22;13414;44.534;18.700;2023-12-29T15:13:45;10.40;99.80
25512;DHT22;13414;44.534;18.700;2023-12-29T15:16:12;10.40;99.90
25512;DHT22;13414;44.534;18.700;2023-12-29T15:18:40;10.30;99.90
25512;DHT22;13414;44.534;18.700;2023-12-29T15:21:07;10.30;99.90
25512;DHT22;13414;44.534;18.700;2023-12-29T15:23:34;10.20;1.00
25512;DHT22;13414;44.534;18.700;2023-12-29T15:26:04;10.10;1.00
25512;DHT22;13414;44.534;18.700;2023-12-29T15:28:32;10.10;1.00
25512;DHT22;13414;44.534;18.700;2023-12-29T15:30:59;10.10;1.00
25512;DHT22;13414;44.534;18.700;2023-12-29T15:33:27;10.10;1.00
25512;DHT22;13414;44.534;18.700;2023-12-29T15:35:55;10.10;1.00
25512;DHT22;13414;44.534;18.700;2023-12-29T15:38:23;10.10;1.00
25512;DHT22;13414;44.534;18.700;2023-12-29T15:40:50;10.10;1.00
25512;DHT22;13414;44.534;18.700;2023-12-29T15:43:20;10.10;1.00
25512;DHT22;13414;44.534;18.700;2023-12-29T15:45:50;10.10;1.00
25512;DHT22;13414;44.534;18.700;2023-12-29T15:48:17;10.10;1.00